Terminal Aerodrome Forecast
Issued by NWS Newport/Morehead City, NC

Home | Current Version | Previous Version | Graphics & Text | Print | Product List | Glossary On
Versions: 1 2 3 4 5 6 7 8 9 10 11 12 13 14 15 16 17 18 19 20 21
000
FTUS42 KMHX 211609 AAD
TAFEWN
TAF AMD
KEWN 211609Z 2116/2212 14006KT P6SM OVC003
     FM211800 12004KT P6SM BKN007
     FM212100 13005KT 3SM -SHRA BKN007
     FM220400 19005KT 3SM BR OVC003
     FM220600 22005KT 2SM BR OVC003 WS020/20035KT=

USA.gov is the U.S. government's official web portal to all federal, state and local government web resources and services.